sensor_id;sensor_type;location;lat;lon;timestamp;P1;durP1;ratioP1;P2;durP2;ratioP2
23058;SDS011;30585;51.502;7.218;2024-01-16T00:02:05;2.83;;;2.53;;
23058;SDS011;30585;51.502;7.218;2024-01-16T00:04:36;5.80;;;2.20;;
23058;SDS011;30585;51.502;7.218;2024-01-16T00:07:05;2.87;;;2.67;;
23058;SDS011;30585;51.502;7.218;2024-01-16T00:09:33;3.63;;;2.37;;
23058;SDS011;30585;51.502;7.218;2024-01-16T00:12:01;3.33;;;2.30;;
23058;SDS011;30585;51.502;7.218;2024-01-16T00:14:29;3.50;;;2.20;;
23058;SDS011;30585;51.502;7.218;2024-01-16T00:16:57;3.07;;;1.47;;
23058;SDS011;30585;51.502;7.218;2024-01-16T00:19:25;4.00;;;2.00;;
23058;SDS011;30585;51.502;7.218;2024-01-16T00:21:52;6.27;;;1.83;;
23058;SDS011;30585;51.502;7.218;2024-01-16T00:24:22;2.60;;;2.07;;
23058;SDS011;30585;51.502;7.218;2024-01-16T00:26:50;1.67;;;0.97;;
23058;SDS011;30585;51.502;7.218;2024-01-16T00:29:17;3.70;;;2.73;;
23058;SDS011;30585;51.502;7.218;2024-01-16T00:31:45;2.67;;;1.80;;
23058;SDS011;30585;51.502;7.218;2024-01-16T00:34:13;5.90;;;2.80;;
23058;SDS011;30585;51.502;7.218;2024-01-16T00:36:41;2.60;;;2.13;;
23058;SDS011;30585;51.502;7.218;2024-01-16T00:39:08;2.70;;;1.90;;
23058;SDS011;30585;51.502;7.218;2024-01-16T00:41:37;2.33;;;2.13;;
23058;SDS011;30585;51.502;7.218;2024-01-16T00:44:05;3.30;;;3.00;;
23058;SDS011;30585;51.502;7.218;2024-01-16T00:46:34;2.77;;;2.50;;
23058;SDS011;30585;51.502;7.218;2024-01-16T00:49:01;1.20;;;1.07;;
23058;SDS011;30585;51.502;7.218;2024-01-16T00:51:29;2.57;;;1.53;;
23058;SDS011;30585;51.502;7.218;2024-01-16T00:53:57;5.73;;;2.17;;
23058;SDS011;30585;51.502;7.218;2024-01-16T00:56:25;3.30;;;2.00;;
23058;SDS011;30585;51.502;7.218;2024-01-16T00:58:55;2.67;;;1.30;;
23058;SDS011;30585;51.502;7.218;2024-01-16T01:01:23;6.53;;;2.40;;
23058;SDS011;30585;51.502;7.218;2024-01-16T01:03:51;10.77;;;1.23;;
23058;SDS011;30585;51.502;7.218;2024-01-16T01:06:18;2.63;;;1.83;;
23058;SDS011;30585;51.502;7.218;2024-01-16T01:08:46;3.03;;;2.50;;
23058;SDS011;30585;51.502;7.218;2024-01-16T01:11:14;7.23;;;2.23;;
23058;SDS011;30585;51.502;7.218;2024-01-16T01:13:42;2.57;;;1.90;;
23058;SDS011;30585;51.502;7.218;2024-01-16T01:16:11;2.17;;;1.97;;
23058;SDS011;30585;51.502;7.218;2024-01-16T01:18:39;4.33;;;1.83;;
23058;SDS011;30585;51.502;7.218;2024-01-16T01:21:07;3.43;;;2.67;;
23058;SDS011;30585;51.502;7.218;2024-01-16T01:23:35;2.07;;;1.70;;
23058;SDS011;30585;51.502;7.218;2024-01-16T01:26:03;2.27;;;2.07;;
23058;SDS011;30585;51.502;7.218;2024-01-16T01:28:31;2.70;;;2.50;;
23058;SDS011;30585;51.502;7.218;2024-01-16T01:30:58;4.73;;;3.43;;
23058;SDS011;30585;51.502;7.218;2024-01-16T01:33:27;2.03;;;1.50;;
23058;SDS011;30585;51.502;7.218;2024-01-16T01:35:55;5.80;;;1.50;;
23058;SDS011;30585;51.502;7.218;2024-01-16T01:38:23;1.17;;;1.13;;
23058;SDS011;30585;51.502;7.218;2024-01-16T01:40:51;2.67;;;1.93;;
23058;SDS011;30585;51.502;7.218;2024-01-16T01:43:19;2.67;;;2.27;;
23058;SDS011;30585;51.502;7.218;2024-01-16T01:45:50;2.10;;;1.83;;
23058;SDS011;30585;51.502;7.218;2024-01-16T01:48:37;7.97;;;1.87;;
23058;SDS011;30585;51.502;7.218;2024-01-16T01:51:06;8.50;;;2.40;;
23058;SDS011;30585;51.502;7.218;2024-01-16T01:53:34;1.30;;;1.17;;
23058;SDS011;30585;51.502;7.218;2024-01-16T01:56:05;8.27;;;2.47;;
23058;SDS011;30585;51.502;7.218;2024-01-16T01:58:36;2.30;;;1.83;;
23058;SDS011;30585;51.502;7.218;2024-01-16T02:01:05;2.53;;;2.23;;
23058;SDS011;30585;51.502;7.218;2024-01-16T02:03:35;2.20;;;1.73;;
23058;SDS011;30585;51.502;7.218;2024-01-16T02:06:08;5.13;;;1.97;;
23058;SDS011;30585;51.502;7.218;2024-01-16T02:08:37;3.53;;;1.87;;
23058;SDS011;30585;51.502;7.218;2024-01-16T02:11:06;4.67;;;2.13;;
23058;SDS011;30585;51.502;7.218;2024-01-16T02:13:34;2.70;;;2.17;;
23058;SDS011;30585;51.502;7.218;2024-01-16T02:16:02;3.47;;;2.43;;
23058;SDS011;30585;51.502;7.218;2024-01-16T02:18:32;4.27;;;2.20;;
23058;SDS011;30585;51.502;7.218;2024-01-16T02:21:01;2.53;;;2.07;;
23058;SDS011;30585;51.502;7.218;2024-01-16T02:23:34;2.13;;;1.90;;
23058;SDS011;30585;51.502;7.218;2024-01-16T02:26:02;2.87;;;1.77;;
23058;SDS011;30585;51.502;7.218;2024-01-16T02:28:30;1.57;;;1.47;;
23058;SDS011;30585;51.502;7.218;2024-01-16T02:30:58;3.47;;;2.60;;
23058;SDS011;30585;51.502;7.218;2024-01-16T02:33:27;6.07;;;1.93;;
23058;SDS011;30585;51.502;7.218;2024-01-16T02:35:55;3.90;;;2.00;;
23058;SDS011;30585;51.502;7.218;2024-01-16T02:38:22;2.87;;;2.27;;
23058;SDS011;30585;51.502;7.218;2024-01-16T02:40:52;2.53;;;1.97;;
23058;SDS011;30585;51.502;7.218;2024-01-16T02:43:19;2.33;;;2.13;;
23058;SDS011;30585;51.502;7.218;2024-01-16T02:45:47;5.27;;;2.10;;
23058;SDS011;30585;51.502;7.218;2024-01-16T02:48:15;5.67;;;1.67;;
23058;SDS011;30585;51.502;7.218;2024-01-16T02:50:43;2.13;;;1.93;;
23058;SDS011;30585;51.502;7.218;2024-01-16T02:53:11;0.73;;;0.73;;
23058;SDS011;30585;51.502;7.218;2024-01-16T02:55:39;5.13;;;3.83;;
23058;SDS011;30585;51.502;7.218;2024-01-16T02:58:08;1.93;;;1.33;;
23058;SDS011;30585;51.502;7.218;2024-01-16T03:00:35;3.37;;;2.53;;
23058;SDS011;30585;51.502;7.218;2024-01-16T03:03:03;2.07;;;1.30;;
23058;SDS011;30585;51.502;7.218;2024-01-16T03:05:32;1.83;;;1.70;;
23058;SDS011;30585;51.502;7.218;2024-01-16T03:08:00;1.93;;;1.73;;
23058;SDS011;30585;51.502;7.218;2024-01-16T03:10:27;2.47;;;2.00;;
23058;SDS011;30585;51.502;7.218;2024-01-16T03:12:55;1.53;;;1.00;;
23058;SDS011;30585;51.502;7.218;2024-01-16T03:15:24;4.17;;;2.03;;
23058;SDS011;30585;51.502;7.218;2024-01-16T03:17:52;2.10;;;1.90;;
23058;SDS011;30585;51.502;7.218;2024-01-16T03:20:20;3.37;;;1.83;;
23058;SDS011;30585;51.502;7.218;2024-01-16T03:22:49;1.80;;;1.30;;
23058;SDS011;30585;51.502;7.218;2024-01-16T03:25:16;1.40;;;1.30;;
23058;SDS011;30585;51.502;7.218;2024-01-16T03:27:45;3.77;;;2.47;;
23058;SDS011;30585;51.502;7.218;2024-01-16T03:30:12;1.10;;;1.03;;
23058;SDS011;30585;51.502;7.218;2024-01-16T03:32:42;3.03;;;2.47;;
23058;SDS011;30585;51.502;7.218;2024-01-16T03:35:10;3.60;;;0.97;;
23058;SDS011;30585;51.502;7.218;2024-01-16T03:37:38;3.40;;;2.33;;
23058;SDS011;30585;51.502;7.218;2024-01-16T03:40:06;1.73;;;0.97;;
23058;SDS011;30585;51.502;7.218;2024-01-16T03:42:34;17.23;;;2.07;;
23058;SDS011;30585;51.502;7.218;2024-01-16T03:45:02;1.30;;;0.90;;
23058;SDS011;30585;51.502;7.218;2024-01-16T03:47:30;3.57;;;2.10;;
23058;SDS011;30585;51.502;7.218;2024-01-16T03:49:59;2.47;;;2.07;;
23058;SDS011;30585;51.502;7.218;2024-01-16T03:52:27;2.53;;;1.60;;
23058;SDS011;30585;51.502;7.218;2024-01-16T03:54:55;3.27;;;2.37;;
23058;SDS011;30585;51.502;7.218;2024-01-16T03:57:23;1.70;;;1.53;;
23058;SDS011;30585;51.502;7.218;2024-01-16T03:59:51;6.07;;;2.00;;
23058;SDS011;30585;51.502;7.218;2024-01-16T04:02:19;1.73;;;1.63;;
23058;SDS011;30585;51.502;7.218;2024-01-16T04:04:47;3.00;;;1.63;;
23058;SDS011;30585;51.502;7.218;2024-01-16T04:07:16;3.07;;;2.10;;
23058;SDS011;30585;51.502;7.218;2024-01-16T04:09:44;2.37;;;2.17;;
23058;SDS011;30585;51.502;7.218;2024-01-16T04:12:11;3.40;;;2.50;;
23058;SDS011;30585;51.502;7.218;2024-01-16T04:14:39;2.30;;;2.10;;
23058;SDS011;30585;51.502;7.218;2024-01-16T04:17:07;3.17;;;2.50;;
23058;SDS011;30585;51.502;7.218;2024-01-16T04:19:35;4.23;;;2.43;;
23058;SDS011;30585;51.502;7.218;2024-01-16T04:22:03;2.93;;;2.63;;
23058;SDS011;30585;51.502;7.218;2024-01-16T04:24:32;2.17;;;1.83;;
23058;SDS011;30585;51.502;7.218;2024-01-16T04:27:00;5.60;;;2.87;;
23058;SDS011;30585;51.502;7.218;2024-01-16T04:29:28;4.00;;;1.83;;
23058;SDS011;30585;51.502;7.218;2024-01-16T04:31:56;1.40;;;1.23;;
23058;SDS011;30585;51.502;7.218;2024-01-16T04:34:24;2.33;;;1.63;;
23058;SDS011;30585;51.502;7.218;2024-01-16T04:36:51;3.33;;;2.00;;
23058;SDS011;30585;51.502;7.218;2024-01-16T04:39:19;4.47;;;3.63;;
23058;SDS011;30585;51.502;7.218;2024-01-16T04:41:50;3.63;;;2.13;;
23058;SDS011;30585;51.502;7.218;2024-01-16T04:44:17;3.57;;;2.97;;
23058;SDS011;30585;51.502;7.218;2024-01-16T04:46:45;12.70;;;2.57;;
23058;SDS011;30585;51.502;7.218;2024-01-16T04:49:13;2.87;;;2.57;;
23058;SDS011;30585;51.502;7.218;2024-01-16T04:51:41;3.40;;;2.40;;
23058;SDS011;30585;51.502;7.218;2024-01-16T04:54:08;2.57;;;1.93;;
23058;SDS011;30585;51.502;7.218;2024-01-16T04:56:37;4.77;;;2.93;;
23058;SDS011;30585;51.502;7.218;2024-01-16T04:59:06;2.73;;;2.53;;
23058;SDS011;30585;51.502;7.218;2024-01-16T05:01:34;3.57;;;2.67;;
23058;SDS011;30585;51.502;7.218;2024-01-16T05:04:02;3.63;;;2.50;;
23058;SDS011;30585;51.502;7.218;2024-01-16T05:06:30;3.40;;;2.93;;
23058;SDS011;30585;51.502;7.218;2024-01-16T05:08:58;6.53;;;3.13;;
23058;SDS011;30585;51.502;7.218;2024-01-16T05:11:26;4.00;;;2.17;;
23058;SDS011;30585;51.502;7.218;2024-01-16T05:13:54;5.40;;;2.70;;
23058;SDS011;30585;51.502;7.218;2024-01-16T05:16:25;3.97;;;3.00;;
23058;SDS011;30585;51.502;7.218;2024-01-16T05:18:53;4.70;;;3.47;;
23058;SDS011;30585;51.502;7.218;2024-01-16T05:21:21;6.40;;;2.30;;
23058;SDS011;30585;51.502;7.218;2024-01-16T05:23:49;3.73;;;2.40;;
23058;SDS011;30585;51.502;7.218;2024-01-16T05:26:17;4.23;;;2.83;;
23058;SDS011;30585;51.502;7.218;2024-01-16T05:28:45;3.60;;;2.40;;
23058;SDS011;30585;51.502;7.218;2024-01-16T05:31:12;7.13;;;4.37;;
23058;SDS011;30585;51.502;7.218;2024-01-16T05:33:42;4.97;;;2.50;;
23058;SDS011;30585;51.502;7.218;2024-01-16T05:36:10;10.47;;;2.97;;
23058;SDS011;30585;51.502;7.218;2024-01-16T05:38:37;4.93;;;3.30;;
23058;SDS011;30585;51.502;7.218;2024-01-16T05:41:05;1.63;;;1.53;;
23058;SDS011;30585;51.502;7.218;2024-01-16T05:43:33;2.13;;;1.93;;
23058;SDS011;30585;51.502;7.218;2024-01-16T05:46:01;2.73;;;2.17;;
23058;SDS011;30585;51.502;7.218;2024-01-16T05:48:29;4.53;;;2.90;;
23058;SDS011;30585;51.502;7.218;2024-01-16T05:50:58;3.30;;;1.77;;
23058;SDS011;30585;51.502;7.218;2024-01-16T05:53:26;5.83;;;3.00;;
23058;SDS011;30585;51.502;7.218;2024-01-16T05:55:54;3.40;;;2.03;;
23058;SDS011;30585;51.502;7.218;2024-01-16T05:58:23;6.37;;;2.47;;
23058;SDS011;30585;51.502;7.218;2024-01-16T06:00:50;2.90;;;2.13;;
23058;SDS011;30585;51.502;7.218;2024-01-16T06:03:18;2.43;;;1.80;;
23058;SDS011;30585;51.502;7.218;2024-01-16T06:05:46;2.47;;;2.27;;
23058;SDS011;30585;51.502;7.218;2024-01-16T06:08:15;2.90;;;2.63;;
23058;SDS011;30585;51.502;7.218;2024-01-16T06:10:43;2.03;;;1.27;;
23058;SDS011;30585;51.502;7.218;2024-01-16T06:13:10;2.20;;;2.00;;
23058;SDS011;30585;51.502;7.218;2024-01-16T06:15:38;4.53;;;2.23;;
23058;SDS011;30585;51.502;7.218;2024-01-16T06:18:06;1.80;;;1.10;;
23058;SDS011;30585;51.502;7.218;2024-01-16T06:20:35;0.77;;;0.77;;
23058;SDS011;30585;51.502;7.218;2024-01-16T06:23:03;1.83;;;1.73;;
23058;SDS011;30585;51.502;7.218;2024-01-16T06:25:32;1.50;;;1.40;;
23058;SDS011;30585;51.502;7.218;2024-01-16T06:28:00;1.83;;;1.60;;
23058;SDS011;30585;51.502;7.218;2024-01-16T06:30:29;3.80;;;1.63;;
23058;SDS011;30585;51.502;7.218;2024-01-16T06:32:57;7.70;;;1.87;;
23058;SDS011;30585;51.502;7.218;2024-01-16T06:35:25;3.03;;;1.57;;
23058;SDS011;30585;51.502;7.218;2024-01-16T06:37:53;4.13;;;1.80;;
23058;SDS011;30585;51.502;7.218;2024-01-16T06:40:21;3.87;;;1.83;;
23058;SDS011;30585;51.502;7.218;2024-01-16T06:42:50;3.37;;;1.97;;
23058;SDS011;30585;51.502;7.218;2024-01-16T06:45:18;1.23;;;1.00;;
23058;SDS011;30585;51.502;7.218;2024-01-16T06:47:45;1.03;;;0.97;;
23058;SDS011;30585;51.502;7.218;2024-01-16T06:50:17;4.23;;;2.03;;
23058;SDS011;30585;51.502;7.218;2024-01-16T06:52:45;4.13;;;1.97;;
23058;SDS011;30585;51.502;7.218;2024-01-16T06:55:13;3.57;;;2.07;;
23058;SDS011;30585;51.502;7.218;2024-01-16T06:57:41;5.30;;;2.77;;
23058;SDS011;30585;51.502;7.218;2024-01-16T07:00:11;4.93;;;3.40;;
23058;SDS011;30585;51.502;7.218;2024-01-16T07:02:40;4.03;;;3.63;;
23058;SDS011;30585;51.502;7.218;2024-01-16T07:05:09;4.10;;;3.40;;
23058;SDS011;30585;51.502;7.218;2024-01-16T07:07:38;2.80;;;2.53;;
23058;SDS011;30585;51.502;7.218;2024-01-16T07:10:06;3.17;;;2.93;;
23058;SDS011;30585;51.502;7.218;2024-01-16T07:12:39;3.80;;;3.17;;
23058;SDS011;30585;51.502;7.218;2024-01-16T07:15:07;5.80;;;4.07;;
23058;SDS011;30585;51.502;7.218;2024-01-16T07:17:36;4.67;;;3.63;;
23058;SDS011;30585;51.502;7.218;2024-01-16T07:20:05;6.43;;;4.03;;
23058;SDS011;30585;51.502;7.218;2024-01-16T07:22:33;5.13;;;4.63;;
23058;SDS011;30585;51.502;7.218;2024-01-16T07:25:01;6.17;;;4.80;;
23058;SDS011;30585;51.502;7.218;2024-01-16T07:27:29;4.57;;;3.00;;
23058;SDS011;30585;51.502;7.218;2024-01-16T07:29:57;3.47;;;2.87;;
23058;SDS011;30585;51.502;7.218;2024-01-16T07:32:25;2.73;;;2.43;;
23058;SDS011;30585;51.502;7.218;2024-01-16T07:34:56;5.23;;;3.00;;
23058;SDS011;30585;51.502;7.218;2024-01-16T07:37:24;6.17;;;2.97;;
23058;SDS011;30585;51.502;7.218;2024-01-16T07:39:52;3.00;;;2.70;;
23058;SDS011;30585;51.502;7.218;2024-01-16T07:42:18;5.37;;;1.90;;
23058;SDS011;30585;51.502;7.218;2024-01-16T07:44:46;3.90;;;2.40;;
23058;SDS011;30585;51.502;7.218;2024-01-16T07:47:14;2.97;;;2.43;;
23058;SDS011;30585;51.502;7.218;2024-01-16T07:49:42;2.83;;;2.27;;
23058;SDS011;30585;51.502;7.218;2024-01-16T07:52:11;1.67;;;1.53;;
23058;SDS011;30585;51.502;7.218;2024-01-16T07:54:39;1.63;;;1.50;;
23058;SDS011;30585;51.502;7.218;2024-01-16T07:57:07;1.43;;;1.33;;
23058;SDS011;30585;51.502;7.218;2024-01-16T07:59:34;5.10;;;2.00;;
23058;SDS011;30585;51.502;7.218;2024-01-16T08:02:02;1.50;;;1.37;;
23058;SDS011;30585;51.502;7.218;2024-01-16T08:04:31;3.20;;;1.57;;
23058;SDS011;30585;51.502;7.218;2024-01-16T08:06:59;1.93;;;1.73;;
23058;SDS011;30585;51.502;7.218;2024-01-16T08:09:28;1.60;;;1.07;;
23058;SDS011;30585;51.502;7.218;2024-01-16T08:11:56;2.10;;;1.80;;
23058;SDS011;30585;51.502;7.218;2024-01-16T08:14:24;3.23;;;2.10;;
23058;SDS011;30585;51.502;7.218;2024-01-16T08:16:52;2.13;;;1.27;;
23058;SDS011;30585;51.502;7.218;2024-01-16T08:19:19;0.87;;;0.77;;
23058;SDS011;30585;51.502;7.218;2024-01-16T08:21:47;3.20;;;2.37;;
23058;SDS011;30585;51.502;7.218;2024-01-16T08:24:15;1.83;;;1.47;;
23058;SDS011;30585;51.502;7.218;2024-01-16T08:26:44;1.33;;;1.20;;
23058;SDS011;30585;51.502;7.218;2024-01-16T08:29:12;3.10;;;1.20;;
23058;SDS011;30585;51.502;7.218;2024-01-16T08:31:42;1.67;;;1.53;;
23058;SDS011;30585;51.502;7.218;2024-01-16T08:34:12;2.37;;;0.93;;
23058;SDS011;30585;51.502;7.218;2024-01-16T08:36:40;13.30;;;1.90;;
23058;SDS011;30585;51.502;7.218;2024-01-16T08:39:07;1.33;;;1.23;;
23058;SDS011;30585;51.502;7.218;2024-01-16T08:41:36;24.20;;;1.53;;
23058;SDS011;30585;51.502;7.218;2024-01-16T08:44:05;2.73;;;1.73;;
23058;SDS011;30585;51.502;7.218;2024-01-16T08:46:33;0.50;;;0.50;;
23058;SDS011;30585;51.502;7.218;2024-01-16T08:49:01;0.60;;;0.57;;
23058;SDS011;30585;51.502;7.218;2024-01-16T08:51:28;2.10;;;1.17;;
23058;SDS011;30585;51.502;7.218;2024-01-16T08:53:56;0.80;;;0.80;;
23058;SDS011;30585;51.502;7.218;2024-01-16T08:56:24;3.50;;;0.80;;
23058;SDS011;30585;51.502;7.218;2024-01-16T08:58:52;5.10;;;1.90;;
23058;SDS011;30585;51.502;7.218;2024-01-16T09:01:21;1.37;;;1.13;;
23058;SDS011;30585;51.502;7.218;2024-01-16T09:03:49;0.20;;;0.20;;
23058;SDS011;30585;51.502;7.218;2024-01-16T09:06:16;19.07;;;0.83;;
23058;SDS011;30585;51.502;7.218;2024-01-16T09:08:44;0.23;;;0.23;;
23058;SDS011;30585;51.502;7.218;2024-01-16T09:11:12;1.00;;;0.90;;
23058;SDS011;30585;51.502;7.218;2024-01-16T09:13:40;0.97;;;0.50;;
23058;SDS011;30585;51.502;7.218;2024-01-16T09:16:08;4.03;;;1.03;;
23058;SDS011;30585;51.502;7.218;2024-01-16T09:18:37;0.50;;;0.50;;
23058;SDS011;30585;51.502;7.218;2024-01-16T09:21:05;2.03;;;1.87;;
23058;SDS011;30585;51.502;7.218;2024-01-16T09:23:32;1.80;;;1.70;;
23058;SDS011;30585;51.502;7.218;2024-01-16T09:26:00;0.73;;;0.73;;
23058;SDS011;30585;51.502;7.218;2024-01-16T09:28:28;1.03;;;1.03;;
23058;SDS011;30585;51.502;7.218;2024-01-16T09:30:56;0.70;;;0.60;;
23058;SDS011;30585;51.502;7.218;2024-01-16T09:33:24;7.80;;;1.70;;
23058;SDS011;30585;51.502;7.218;2024-01-16T09:35:54;1.40;;;1.17;;
23058;SDS011;30585;51.502;7.218;2024-01-16T09:38:22;0.87;;;0.87;;
23058;SDS011;30585;51.502;7.218;2024-01-16T09:40:50;2.43;;;0.77;;
23058;SDS011;30585;51.502;7.218;2024-01-16T09:43:19;1.03;;;0.93;;
23058;SDS011;30585;51.502;7.218;2024-01-16T09:45:47;0.73;;;0.73;;
23058;SDS011;30585;51.502;7.218;2024-01-16T09:48:18;5.73;;;0.77;;
23058;SDS011;30585;51.502;7.218;2024-01-16T09:50:46;0.40;;;0.40;;
23058;SDS011;30585;51.502;7.218;2024-01-16T09:53:15;1.70;;;1.60;;
23058;SDS011;30585;51.502;7.218;2024-01-16T09:55:43;1.17;;;1.13;;
23058;SDS011;30585;51.502;7.218;2024-01-16T09:58:11;0.70;;;0.70;;
23058;SDS011;30585;51.502;7.218;2024-01-16T10:00:41;0.73;;;0.73;;
23058;SDS011;30585;51.502;7.218;2024-01-16T10:03:11;5.20;;;1.37;;
23058;SDS011;30585;51.502;7.218;2024-01-16T10:05:40;0.27;;;0.27;;
23058;SDS011;30585;51.502;7.218;2024-01-16T10:08:09;5.53;;;0.67;;
23058;SDS011;30585;51.502;7.218;2024-01-16T10:10:38;2.03;;;1.63;;
23058;SDS011;30585;51.502;7.218;2024-01-16T10:13:15;1.57;;;1.40;;
23058;SDS011;30585;51.502;7.218;2024-01-16T10:15:44;1.50;;;0.77;;
23058;SDS011;30585;51.502;7.218;2024-01-16T10:18:23;0.97;;;0.97;;
23058;SDS011;30585;51.502;7.218;2024-01-16T10:20:52;1.90;;;1.17;;
23058;SDS011;30585;51.502;7.218;2024-01-16T10:23:24;1.23;;;0.63;;
23058;SDS011;30585;51.502;7.218;2024-01-16T10:26:05;0.37;;;0.37;;
23058;SDS011;30585;51.502;7.218;2024-01-16T10:28:34;6.13;;;0.60;;
23058;SDS011;30585;51.502;7.218;2024-01-16T10:31:05;3.27;;;0.70;;
23058;SDS011;30585;51.502;7.218;2024-01-16T10:33:34;2.50;;;0.97;;
23058;SDS011;30585;51.502;7.218;2024-01-16T10:36:11;1.40;;;1.00;;
23058;SDS011;30585;51.502;7.218;2024-01-16T10:38:40;3.80;;;1.40;;
23058;SDS011;30585;51.502;7.218;2024-01-16T10:41:11;3.40;;;1.27;;
23058;SDS011;30585;51.502;7.218;2024-01-16T10:43:41;0.43;;;0.43;;
23058;SDS011;30585;51.502;7.218;2024-01-16T10:46:11;0.10;;;0.10;;
23058;SDS011;30585;51.502;7.218;2024-01-16T10:48:41;1.63;;;0.83;;
23058;SDS011;30585;51.502;7.218;2024-01-16T10:51:10;0.90;;;0.90;;
23058;SDS011;30585;51.502;7.218;2024-01-16T10:53:41;5.13;;;1.63;;
23058;SDS011;30585;51.502;7.218;2024-01-16T10:56:11;0.83;;;0.50;;
23058;SDS011;30585;51.502;7.218;2024-01-16T10:58:42;1.77;;;0.87;;
23058;SDS011;30585;51.502;7.218;2024-01-16T11:01:11;17.07;;;0.73;;
23058;SDS011;30585;51.502;7.218;2024-01-16T11:03:40;2.30;;;1.00;;
23058;SDS011;30585;51.502;7.218;2024-01-16T11:06:14;1.20;;;0.67;;
23058;SDS011;30585;51.502;7.218;2024-01-16T11:08:45;0.60;;;0.53;;
23058;SDS011;30585;51.502;7.218;2024-01-16T11:11:15;0.93;;;0.87;;
23058;SDS011;30585;51.502;7.218;2024-01-16T11:13:46;0.43;;;0.43;;
23058;SDS011;30585;51.502;7.218;2024-01-16T11:16:14;0.67;;;0.67;;
23058;SDS011;30585;51.502;7.218;2024-01-16T11:18:43;1.53;;;0.63;;
23058;SDS011;30585;51.502;7.218;2024-01-16T11:21:11;7.20;;;0.90;;
23058;SDS011;30585;51.502;7.218;2024-01-16T11:23:44;0.77;;;0.50;;
23058;SDS011;30585;51.502;7.218;2024-01-16T11:26:25;0.33;;;0.33;;
23058;SDS011;30585;51.502;7.218;2024-01-16T11:28:54;1.23;;;0.77;;
23058;SDS011;30585;51.502;7.218;2024-01-16T11:31:29;2.10;;;0.60;;
23058;SDS011;30585;51.502;7.218;2024-01-16T11:33:58;2.30;;;0.70;;
23058;SDS011;30585;51.502;7.218;2024-01-16T11:39:21;2.17;;;0.97;;
23058;SDS011;30585;51.502;7.218;2024-01-16T11:41:55;1.20;;;1.10;;
23058;SDS011;30585;51.502;7.218;2024-01-16T11:44:37;1.37;;;0.70;;
23058;SDS011;30585;51.502;7.218;2024-01-16T11:47:08;1.10;;;0.80;;
23058;SDS011;30585;51.502;7.218;2024-01-16T11:49:37;1.00;;;0.90;;
23058;SDS011;30585;51.502;7.218;2024-01-16T11:52:05;3.83;;;1.43;;
23058;SDS011;30585;51.502;7.218;2024-01-16T11:54:33;1.53;;;0.90;;
23058;SDS011;30585;51.502;7.218;2024-01-16T11:57:09;1.03;;;0.93;;
23058;SDS011;30585;51.502;7.218;2024-01-16T11:59:58;3.70;;;0.97;;
23058;SDS011;30585;51.502;7.218;2024-01-16T12:02:29;1.53;;;0.70;;
23058;SDS011;30585;51.502;7.218;2024-01-16T12:05:06;2.67;;;0.73;;
23058;SDS011;30585;51.502;7.218;2024-01-16T12:07:45;6.10;;;0.80;;
23058;SDS011;30585;51.502;7.218;2024-01-16T12:10:16;7.03;;;1.23;;
23058;SDS011;30585;51.502;7.218;2024-01-16T12:12:47;0.90;;;0.60;;
23058;SDS011;30585;51.502;7.218;2024-01-16T12:15:16;2.73;;;1.17;;
23058;SDS011;30585;51.502;7.218;2024-01-16T12:17:51;3.07;;;1.27;;
23058;SDS011;30585;51.502;7.218;2024-01-16T12:20:20;3.67;;;1.87;;
23058;SDS011;30585;51.502;7.218;2024-01-16T12:22:53;1.63;;;0.93;;
23058;SDS011;30585;51.502;7.218;2024-01-16T12:25:21;0.50;;;0.50;;
23058;SDS011;30585;51.502;7.218;2024-01-16T12:27:55;1.30;;;1.00;;
23058;SDS011;30585;51.502;7.218;2024-01-16T12:30:24;4.30;;;1.27;;
23058;SDS011;30585;51.502;7.218;2024-01-16T12:33:04;0.93;;;0.57;;
23058;SDS011;30585;51.502;7.218;2024-01-16T12:35:37;0.80;;;0.63;;
23058;SDS011;30585;51.502;7.218;2024-01-16T12:38:06;0.53;;;0.30;;
23058;SDS011;30585;51.502;7.218;2024-01-16T12:40:35;1.47;;;0.90;;
23058;SDS011;30585;51.502;7.218;2024-01-16T12:43:06;1.57;;;0.97;;
23058;SDS011;30585;51.502;7.218;2024-01-16T12:45:35;1.17;;;0.90;;
23058;SDS011;30585;51.502;7.218;2024-01-16T12:48:03;1.13;;;0.53;;
23058;SDS011;30585;51.502;7.218;2024-01-16T12:50:32;4.37;;;0.93;;
23058;SDS011;30585;51.502;7.218;2024-01-16T12:53:01;1.60;;;0.40;;
23058;SDS011;30585;51.502;7.218;2024-01-16T12:55:33;3.03;;;1.10;;
23058;SDS011;30585;51.502;7.218;2024-01-16T12:58:12;0.87;;;0.83;;
23058;SDS011;30585;51.502;7.218;2024-01-16T13:00:41;0.43;;;0.40;;
23058;SDS011;30585;51.502;7.218;2024-01-16T13:03:14;1.87;;;0.70;;
23058;SDS011;30585;51.502;7.218;2024-01-16T13:05:44;0.47;;;0.47;;
23058;SDS011;30585;51.502;7.218;2024-01-16T13:08:22;0.97;;;0.97;;
23058;SDS011;30585;51.502;7.218;2024-01-16T13:11:03;2.47;;;1.63;;
23058;SDS011;30585;51.502;7.218;2024-01-16T13:13:33;4.60;;;1.53;;
23058;SDS011;30585;51.502;7.218;2024-01-16T13:16:02;3.57;;;0.73;;
23058;SDS011;30585;51.502;7.218;2024-01-16T13:18:32;10.10;;;1.20;;
23058;SDS011;30585;51.502;7.218;2024-01-16T13:21:00;1.90;;;1.20;;
23058;SDS011;30585;51.502;7.218;2024-01-16T13:23:28;2.53;;;0.97;;
23058;SDS011;30585;51.502;7.218;2024-01-16T13:25:56;0.50;;;0.50;;
23058;SDS011;30585;51.502;7.218;2024-01-16T13:28:25;0.47;;;0.47;;
23058;SDS011;30585;51.502;7.218;2024-01-16T13:30:55;1.63;;;1.53;;
23058;SDS011;30585;51.502;7.218;2024-01-16T13:33:23;1.57;;;1.43;;
23058;SDS011;30585;51.502;7.218;2024-01-16T13:35:53;0.83;;;0.73;;
23058;SDS011;30585;51.502;7.218;2024-01-16T13:38:21;1.30;;;1.20;;
23058;SDS011;30585;51.502;7.218;2024-01-16T13:40:50;6.33;;;0.80;;
23058;SDS011;30585;51.502;7.218;2024-01-16T13:43:17;12.73;;;1.13;;
23058;SDS011;30585;51.502;7.218;2024-01-16T13:45:45;2.00;;;1.07;;
23058;SDS011;30585;51.502;7.218;2024-01-16T13:48:17;1.30;;;1.17;;
23058;SDS011;30585;51.502;7.218;2024-01-16T13:50:45;1.60;;;0.50;;
23058;SDS011;30585;51.502;7.218;2024-01-16T13:53:13;1.37;;;0.63;;
23058;SDS011;30585;51.502;7.218;2024-01-16T13:55:41;0.93;;;0.93;;
23058;SDS011;30585;51.502;7.218;2024-01-16T13:58:08;0.97;;;0.67;;
23058;SDS011;30585;51.502;7.218;2024-01-16T14:00:37;2.37;;;0.97;;
23058;SDS011;30585;51.502;7.218;2024-01-16T14:03:05;1.33;;;0.63;;
23058;SDS011;30585;51.502;7.218;2024-01-16T14:05:34;1.57;;;0.80;;
23058;SDS011;30585;51.502;7.218;2024-01-16T14:08:03;3.40;;;1.13;;
23058;SDS011;30585;51.502;7.218;2024-01-16T14:10:31;6.80;;;1.90;;
23058;SDS011;30585;51.502;7.218;2024-01-16T14:12:58;1.20;;;1.10;;
23058;SDS011;30585;51.502;7.218;2024-01-16T14:15:26;1.73;;;1.00;;
23058;SDS011;30585;51.502;7.218;2024-01-16T14:17:55;2.30;;;1.30;;
23058;SDS011;30585;51.502;7.218;2024-01-16T14:20:24;2.07;;;1.37;;
23058;SDS011;30585;51.502;7.218;2024-01-16T14:22:55;2.07;;;1.37;;
23058;SDS011;30585;51.502;7.218;2024-01-16T14:25:24;8.33;;;2.90;;
23058;SDS011;30585;51.502;7.218;2024-01-16T14:27:58;8.10;;;1.87;;
23058;SDS011;30585;51.502;7.218;2024-01-16T14:30:30;1.70;;;1.33;;
23058;SDS011;30585;51.502;7.218;2024-01-16T14:32:58;1.27;;;1.17;;
23058;SDS011;30585;51.502;7.218;2024-01-16T14:35:28;3.40;;;1.80;;
23058;SDS011;30585;51.502;7.218;2024-01-16T14:37:57;1.13;;;1.03;;
23058;SDS011;30585;51.502;7.218;2024-01-16T14:40:25;2.07;;;0.90;;
23058;SDS011;30585;51.502;7.218;2024-01-16T14:42:53;0.73;;;0.63;;
23058;SDS011;30585;51.502;7.218;2024-01-16T14:45:23;0.53;;;0.40;;
23058;SDS011;30585;51.502;7.218;2024-01-16T14:47:52;4.10;;;1.30;;
23058;SDS011;30585;51.502;7.218;2024-01-16T14:50:21;0.77;;;0.77;;
23058;SDS011;30585;51.502;7.218;2024-01-16T14:52:51;1.77;;;0.77;;
23058;SDS011;30585;51.502;7.218;2024-01-16T14:55:20;1.93;;;1.23;;
23058;SDS011;30585;51.502;7.218;2024-01-16T14:57:48;1.33;;;0.93;;
23058;SDS011;30585;51.502;7.218;2024-01-16T15:00:19;3.90;;;1.10;;
23058;SDS011;30585;51.502;7.218;2024-01-16T15:02:50;1.37;;;1.27;;